Time;durP1;ratioP1;P1;durP2;ratioP2;P2;SDS_P1;SDS_P2;PMS_P1;PMS_P2;Temp;Humidity;BMP_temperature;BMP_pressure;BME280_temperature;BME280_humidity;BME280_pressure;Samples;Min_cycle;Max_cycle;Signal;HPM_P1;HPM_P2
2023/05/22 00:00:37;;;;;;;11.43;9.02;;;19.00;99.50;;;;;;4981350;28;20121;-73
2023/05/22 00:03:04;;;;;;;14.70;10.05;;;19.00;99.60;;;;;;5001571;28;20350;-73
2023/05/22 00:05:30;;;;;;;15.68;9.43;;;19.00;99.70;;;;;;4994880;28;20470;-73
2023/05/22 00:07:56;;;;;;;11.50;8.48;;;19.00;99.70;;;;;;4975804;28;20055;-73
2023/05/22 00:10:21;;;;;;;12.02;9.13;;;19.00;99.90;;;;;;4966127;28;20474;-73
2023/05/22 00:12:47;;;;;;;11.57;9.25;;;18.90;99.90;;;;;;4958825;28;20188;-73
2023/05/22 00:15:13;;;;;;;12.40;8.73;;;18.90;99.90;;;;;;4958750;28;20034;-73
2023/05/22 00:17:39;;;;;;;10.77;9.00;;;18.90;99.90;;;;;;4976374;28;20046;-73
2023/05/22 00:20:09;;;;;;;12.40;9.10;;;18.90;99.90;;;;;;4970718;28;20035;-73
2023/05/22 00:22:35;;;;;;;14.05;8.90;;;18.80;99.90;;;;;;4968246;28;20049;-73
2023/05/22 00:25:04;;;;;;;10.07;8.82;;;18.90;99.90;;;;;;4993373;28;20061;-73
2023/05/22 00:27:30;;;;;;;10.88;8.38;;;18.80;99.90;;;;;;4983833;28;20050;-73
2023/05/22 00:29:57;;;;;;;10.50;8.55;;;18.80;99.90;;;;;;4982279;28;20055;-73
2023/05/22 00:32:22;;;;;;;12.13;8.35;;;18.80;99.90;;;;;;4938627;28;20491;-73
2023/05/22 00:34:49;;;;;;;11.15;8.15;;;18.80;99.90;;;;;;4991026;28;20197;-73
2023/05/22 00:37:14;;;;;;;12.82;8.18;;;18.80;99.90;;;;;;4972401;28;20050;-73
2023/05/22 00:39:40;;;;;;;10.40;8.77;;;18.80;99.90;;;;;;4945118;28;20053;-73
2023/05/22 00:42:07;;;;;;;12.20;8.60;;;18.80;99.90;;;;;;4995821;28;20054;-73
2023/05/22 00:44:33;;;;;;;10.77;8.30;;;18.70;99.90;;;;;;4985127;28;20526;-73
2023/05/22 00:46:59;;;;;;;11.93;8.82;;;18.70;99.90;;;;;;4989417;28;20058;-73
2023/05/22 00:49:24;;;;;;;14.43;8.88;;;18.70;99.90;;;;;;4983278;28;20082;-73
2023/05/22 00:51:50;;;;;;;12.00;8.27;;;18.70;99.90;;;;;;4976768;28;20061;-73
2023/05/22 00:54:16;;;;;;;8.98;8.07;;;18.60;99.90;;;;;;4977048;28;20046;-73
2023/05/22 00:56:43;;;;;;;10.00;8.15;;;18.60;99.90;;;;;;4965447;28;20057;-73
2023/05/22 00:59:08;;;;;;;14.52;8.82;;;18.60;99.90;;;;;;4976099;28;20050;-73
2023/05/22 01:01:37;;;;;;;12.52;7.93;;;18.60;99.90;;;;;;4963595;28;20057;-73
2023/05/22 01:04:08;;;;;;;12.02;8.30;;;18.50;99.90;;;;;;4996958;28;20042;-73
2023/05/22 01:06:34;;;;;;;10.68;8.27;;;18.50;99.90;;;;;;4976729;28;20082;-73
2023/05/22 01:09:00;;;;;;;14.25;9.13;;;18.50;99.90;;;;;;4990402;28;20397;-72
2023/05/22 01:12:00;;;;;;;14.05;8.18;;;18.50;99.90;;;;;;4975549;28;20444;-72
2023/05/22 01:14:53;;;;;;;11.90;8.32;;;18.50;99.90;;;;;;4991512;28;20074;-72
2023/05/22 01:17:27;;;;;;;9.15;7.72;;;18.50;99.90;;;;;;4969785;28;20069;-73
2023/05/22 01:20:17;;;;;;;10.10;8.35;;;18.40;99.90;;;;;;4991490;28;20378;-73
2023/05/22 01:23:20;;;;;;;11.77;8.15;;;18.40;99.90;;;;;;4947793;28;20042;-73
2023/05/22 01:26:01;;;;;;;16.75;8.73;;;18.40;99.90;;;;;;4996884;28;20042;-73
2023/05/22 01:28:45;;;;;;;12.38;8.05;;;18.30;99.90;;;;;;4983364;28;20515;-73
2023/05/22 01:31:14;;;;;;;10.20;8.10;;;18.30;99.90;;;;;;4988556;28;20395;-73
2023/05/22 01:33:55;;;;;;;12.38;7.88;;;18.30;99.90;;;;;;4961302;28;20046;-73
2023/05/22 01:36:21;;;;;;;10.35;8.48;;;18.30;99.90;;;;;;4977360;28;20050;-73
2023/05/22 01:38:47;;;;;;;12.75;8.30;;;18.30;99.90;;;;;;4978868;28;20046;-73
2023/05/22 01:41:13;;;;;;;13.07;8.43;;;18.20;99.90;;;;;;4985586;28;20844;-72
2023/05/22 01:43:40;;;;;;;10.43;7.45;;;18.20;99.90;;;;;;4975639;28;20042;-73
2023/05/22 01:46:06;;;;;;;11.18;7.25;;;18.20;99.90;;;;;;4957035;28;20542;-73
2023/05/22 01:48:32;;;;;;;14.88;7.30;;;18.10;99.90;;;;;;4988454;28;20137;-73
2023/05/22 01:51:02;;;;;;;14.80;7.15;;;18.10;99.80;;;;;;4956546;28;20051;-73
2023/05/22 01:53:46;;;;;;;10.93;7.55;;;18.10;99.90;;;;;;4934610;28;20051;-73
2023/05/22 01:56:15;;;;;;;10.02;7.72;;;18.10;99.90;;;;;;4960307;28;20513;-73
2023/05/22 01:58:55;;;;;;;10.95;6.93;;;18.10;99.90;;;;;;4939981;28;20054;-73
2023/05/22 02:01:21;;;;;;;11.90;8.23;;;18.10;99.90;;;;;;4989566;28;20050;-73
2023/05/22 02:03:47;;;;;;;8.40;7.28;;;18.00;99.90;;;;;;4969610;28;20482;-73
2023/05/22 02:06:13;;;;;;;11.50;7.10;;;18.00;99.80;;;;;;4966350;28;20382;-73
2023/05/22 02:08:42;;;;;;;10.30;6.88;;;18.00;99.70;;;;;;4991590;28;20050;-73
2023/05/22 02:11:08;;;;;;;11.93;7.25;;;18.00;99.80;;;;;;4987410;28;20104;-73
2023/05/22 02:13:35;;;;;;;9.45;6.68;;;18.00;99.80;;;;;;4977027;28;20093;-73
2023/05/22 02:16:02;;;;;;;9.27;6.65;;;18.00;99.90;;;;;;4977418;28;20141;-72
2023/05/22 02:18:29;;;;;;;8.93;6.65;;;18.00;99.40;;;;;;4975014;28;20055;-73
2023/05/22 02:20:56;;;;;;;8.82;6.40;;;17.90;99.30;;;;;;4975680;28;20057;-73
2023/05/22 02:23:23;;;;;;;8.85;6.57;;;17.90;99.30;;;;;;4992984;28;20108;-73
2023/05/22 02:25:49;;;;;;;10.85;5.90;;;17.90;99.20;;;;;;4981321;28;20085;-73
2023/05/22 02:28:15;;;;;;;10.98;6.57;;;17.90;99.10;;;;;;4969613;28;20077;-73
2023/05/22 02:30:42;;;;;;;10.65;6.63;;;17.90;99.10;;;;;;4993138;28;20049;-73
2023/05/22 02:33:10;;;;;;;9.85;6.35;;;17.90;99.10;;;;;;4972483;28;20383;-73
2023/05/22 02:35:35;;;;;;;15.13;6.82;;;17.90;99.00;;;;;;4939920;28;20104;-72
2023/05/22 02:38:02;;;;;;;13.30;7.03;;;17.90;99.00;;;;;;4961074;28;20054;-73
2023/05/22 02:40:27;;;;;;;8.70;6.43;;;17.90;98.90;;;;;;4984961;28;20336;-73
2023/05/22 02:42:53;;;;;;;7.00;6.30;;;17.90;98.90;;;;;;4977927;28;20053;-73
2023/05/22 02:45:19;;;;;;;7.53;6.07;;;17.80;98.90;;;;;;5005269;28;20042;-73
2023/05/22 02:47:45;;;;;;;9.63;6.22;;;17.80;98.70;;;;;;4988048;28;20492;-73
2023/05/22 02:50:11;;;;;;;7.60;6.35;;;17.80;98.70;;;;;;4992319;28;20497;-72
2023/05/22 02:52:38;;;;;;;9.63;6.55;;;17.80;98.70;;;;;;4991557;28;20133;-73
2023/05/22 02:55:07;;;;;;;8.30;5.97;;;17.80;98.60;;;;;;4968374;28;20042;-73
2023/05/22 02:57:32;;;;;;;8.52;5.78;;;17.80;98.70;;;;;;4978016;28;20529;-73
2023/05/22 02:59:58;;;;;;;10.90;6.30;;;17.80;98.70;;;;;;4977957;28;20042;-73
2023/05/22 03:02:28;;;;;;;11.38;5.97;;;17.80;98.60;;;;;;4997315;28;20039;-73
2023/05/22 03:04:54;;;;;;;8.45;5.68;;;17.80;98.50;;;;;;4981355;28;20447;-73
2023/05/22 03:07:20;;;;;;;8.40;5.60;;;17.80;98.40;;;;;;4999950;28;20077;-73
2023/05/22 03:09:46;;;;;;;6.93;5.63;;;17.80;98.30;;;;;;4971492;28;20050;-73
2023/05/22 03:12:11;;;;;;;9.43;5.97;;;17.80;98.40;;;;;;4961844;28;20073;-73
2023/05/22 03:14:37;;;;;;;8.73;5.80;;;17.80;98.20;;;;;;4960411;28;20057;-73
2023/05/22 03:17:03;;;;;;;8.65;5.60;;;17.80;98.20;;;;;;4996305;28;20498;-73
2023/05/22 03:19:29;;;;;;;7.65;5.18;;;17.80;98.10;;;;;;4964724;28;20050;-73
2023/05/22 03:21:55;;;;;;;7.35;5.60;;;17.70;98.10;;;;;;4967784;28;20073;-73
2023/05/22 03:24:21;;;;;;;10.50;6.00;;;17.70;98.40;;;;;;4974209;28;20058;-73
2023/05/22 03:26:46;;;;;;;9.13;6.28;;;17.70;98.50;;;;;;4996809;28;20057;-73
2023/05/22 03:29:12;;;;;;;9.85;5.43;;;17.70;98.40;;;;;;4993442;28;20065;-72
2023/05/22 03:31:38;;;;;;;8.48;5.88;;;17.70;98.40;;;;;;4982834;28;20073;-72
2023/05/22 03:34:04;;;;;;;8.45;5.85;;;17.70;98.70;;;;;;4942915;28;20050;-72
2023/05/22 03:36:32;;;;;;;9.35;5.93;;;17.70;98.60;;;;;;4978132;28;20160;-73
2023/05/22 03:38:58;;;;;;;8.95;6.30;;;17.70;98.70;;;;;;4992556;28;20050;-72
2023/05/22 03:41:24;;;;;;;8.23;6.13;;;17.60;98.70;;;;;;4996565;28;20061;-73
2023/05/22 03:43:50;;;;;;;10.35;6.43;;;17.60;98.90;;;;;;4997078;28;20049;-72
2023/05/22 03:46:16;;;;;;;9.57;6.55;;;17.60;99.00;;;;;;4976683;28;20042;-72
2023/05/22 03:48:41;;;;;;;12.60;7.07;;;17.50;99.20;;;;;;4990929;28;20128;-72
2023/05/22 03:51:07;;;;;;;9.48;6.60;;;17.50;99.30;;;;;;4992814;28;20046;-72
2023/05/22 03:53:33;;;;;;;11.60;6.88;;;17.50;99.40;;;;;;4969082;28;20135;-73
2023/05/22 03:55:58;;;;;;;9.55;6.97;;;17.50;99.50;;;;;;5004361;28;20486;-73
2023/05/22 03:58:24;;;;;;;9.73;6.60;;;17.40;99.40;;;;;;4997893;28;20045;-73
2023/05/22 04:00:52;;;;;;;13.60;7.82;;;17.40;99.50;;;;;;4950022;28;20078;-78
2023/05/22 04:03:18;;;;;;;10.30;6.93;;;17.40;99.70;;;;;;4983369;28;20042;-78
2023/05/22 04:05:45;;;;;;;12.40;7.07;;;17.40;99.80;;;;;;4978227;28;20103;-73
2023/05/22 04:08:10;;;;;;;9.82;6.95;;;17.30;99.90;;;;;;4968012;28;20050;-73
2023/05/22 04:10:37;;;;;;;7.85;6.50;;;17.30;99.90;;;;;;4958448;28;20054;-72
2023/05/22 04:13:03;;;;;;;8.57;6.25;;;17.30;99.90;;;;;;4979262;28;20045;-73
2023/05/22 04:15:32;;;;;;;11.25;5.82;;;17.40;99.70;;;;;;4963741;28;20046;-73
2023/05/22 04:17:58;;;;;;;10.88;6.18;;;17.30;99.80;;;;;;4990505;28;20131;-72
2023/05/22 04:20:24;;;;;;;9.27;5.65;;;17.40;99.80;;;;;;4979661;28;20370;-72
2023/05/22 04:22:50;;;;;;;8.18;5.47;;;17.40;99.60;;;;;;4975498;28;20050;-72
2023/05/22 04:25:16;;;;;;;9.63;5.32;;;17.40;99.30;;;;;;4961866;28;20117;-73
2023/05/22 04:27:42;;;;;;;11.82;5.63;;;17.40;99.10;;;;;;4978809;28;20466;-73
2023/05/22 04:30:09;;;;;;;8.07;5.53;;;17.40;99.10;;;;;;4961073;28;20096;-73
2023/05/22 04:32:35;;;;;;;8.25;5.93;;;17.50;99.00;;;;;;4997098;28;20049;-73
2023/05/22 04:35:01;;;;;;;9.50;4.82;;;17.50;98.80;;;;;;4960132;28;20049;-73
2023/05/22 04:37:27;;;;;;;10.18;4.93;;;17.50;98.80;;;;;;4951622;28;20134;-73
2023/05/22 04:39:56;;;;;;;8.32;5.55;;;17.60;98.70;;;;;;4986867;28;20046;-73
2023/05/22 04:42:24;;;;;;;11.35;5.07;;;17.60;98.60;;;;;;4990738;28;20076;-73
2023/05/22 04:44:51;;;;;;;6.45;4.60;;;17.60;98.60;;;;;;5006026;28;20362;-73
2023/05/22 04:47:18;;;;;;;10.45;5.18;;;17.60;98.60;;;;;;4983717;28;20046;-73
2023/05/22 04:49:44;;;;;;;7.55;5.22;;;17.70;98.60;;;;;;4977377;28;20057;-73
2023/05/22 04:52:10;;;;;;;7.68;5.45;;;17.70;98.60;;;;;;5021478;28;20045;-73
2023/05/22 04:54:37;;;;;;;12.82;5.25;;;17.70;98.50;;;;;;4943180;28;20125;-73
2023/05/22 04:57:03;;;;;;;8.77;4.50;;;17.70;98.60;;;;;;4982163;28;20052;-73
2023/05/22 04:59:38;;;;;;;8.23;5.43;;;17.80;98.60;;;;;;4955332;28;20052;-73
2023/05/22 05:02:04;;;;;;;10.13;5.07;;;17.80;98.60;;;;;;4988096;28;20037;-73
2023/05/22 05:04:30;;;;;;;7.13;5.28;;;17.80;98.50;;;;;;4957498;28;20038;-73
2023/05/22 05:06:56;;;;;;;9.43;5.10;;;17.90;98.60;;;;;;4964258;28;20042;-73
2023/05/22 05:09:23;;;;;;;7.75;4.65;;;17.90;98.60;;;;;;4991322;28;20482;-73
2023/05/22 05:11:49;;;;;;;8.15;4.97;;;17.90;98.60;;;;;;4957105;28;20046;-73
2023/05/22 05:14:15;;;;;;;9.35;5.10;;;18.00;98.60;;;;;;5012865;28;20042;-73
2023/05/22 05:16:42;;;;;;;9.18;4.68;;;18.00;98.60;;;;;;4996287;28;20435;-73
2023/05/22 05:19:08;;;;;;;7.60;5.13;;;18.00;98.60;;;;;;4976647;28;20054;-73
2023/05/22 05:21:33;;;;;;;7.50;4.90;;;18.00;98.60;;;;;;4973149;28;20045;-73
2023/05/22 05:23:59;;;;;;;8.50;5.25;;;18.10;98.70;;;;;;4997032;28;20077;-73
2023/05/22 05:26:26;;;;;;;9.25;4.95;;;18.10;98.60;;;;;;4983266;28;20054;-73
2023/05/22 05:28:52;;;;;;;8.18;4.60;;;18.10;98.70;;;;;;4989337;28;20052;-73
2023/05/22 05:31:19;;;;;;;9.75;4.93;;;18.20;98.70;;;;;;4997653;28;20505;-73
2023/05/22 05:33:45;;;;;;;8.25;4.60;;;18.20;98.70;;;;;;4959455;28;20058;-73
2023/05/22 05:36:11;;;;;;;10.18;5.18;;;18.30;98.70;;;;;;4978467;28;20052;-74
2023/05/22 05:38:37;;;;;;;7.88;4.70;;;18.30;98.60;;;;;;4979629;28;21988;-73
2023/05/22 05:41:03;;;;;;;6.82;4.72;;;18.30;98.60;;;;;;4963528;28;20391;-72
2023/05/22 05:43:29;;;;;;;9.57;4.80;;;18.30;99.00;;;;;;4988373;28;20042;-73
2023/05/22 05:45:55;;;;;;;7.47;4.72;;;18.40;98.70;;;;;;4987008;28;20120;-73
2023/05/22 05:48:21;;;;;;;7.80;5.28;;;18.40;98.70;;;;;;4991751;28;20046;-73
2023/05/22 05:50:47;;;;;;;8.52;5.03;;;18.40;99.00;;;;;;4963631;28;20124;-73
2023/05/22 05:53:13;;;;;;;7.40;5.05;;;18.40;98.90;;;;;;4981898;28;20458;-73
2023/05/22 05:55:38;;;;;;;8.80;4.60;;;18.50;98.80;;;;;;4984122;28;20050;-73
2023/05/22 05:58:04;;;;;;;5.70;4.85;;;18.50;98.80;;;;;;4994562;28;20478;-73
2023/05/22 06:00:30;;;;;;;9.50;5.10;;;18.50;98.90;;;;;;4953550;28;20049;-73
2023/05/22 06:02:56;;;;;;;8.93;5.13;;;18.50;98.90;;;;;;4989893;28;20192;-73
2023/05/22 06:05:22;;;;;;;6.78;4.72;;;18.60;98.90;;;;;;4987637;28;20430;-72
2023/05/22 06:07:48;;;;;;;9.20;5.50;;;18.60;98.80;;;;;;4975544;28;20808;-72
2023/05/22 06:10:16;;;;;;;8.20;5.18;;;18.70;98.70;;;;;;4983076;28;20046;-73
2023/05/22 06:12:43;;;;;;;9.02;4.57;;;18.70;98.70;;;;;;4993556;28;20825;-73
2023/05/22 06:15:12;;;;;;;7.43;4.93;;;18.70;98.60;;;;;;4978562;28;20509;-75
2023/05/22 06:17:38;;;;;;;7.80;4.80;;;18.70;98.70;;;;;;4993002;28;20460;-73
2023/05/22 06:20:05;;;;;;;9.05;5.03;;;18.80;98.60;;;;;;4980770;28;20046;-73
2023/05/22 06:22:32;;;;;;;5.72;4.43;;;18.80;98.40;;;;;;4977373;28;20202;-73
2023/05/22 06:24:58;;;;;;;7.28;4.53;;;18.90;98.40;;;;;;4975088;28;20053;-73
2023/05/22 06:27:26;;;;;;;7.35;4.25;;;18.90;98.50;;;;;;4978816;28;20045;-73
2023/05/22 06:29:52;;;;;;;8.32;4.47;;;18.90;98.40;;;;;;4961905;28;20053;-73
2023/05/22 06:32:18;;;;;;;10.52;4.45;;;19.00;98.40;;;;;;4960443;28;20045;-72
2023/05/22 06:34:46;;;;;;;7.32;5.25;;;19.00;98.40;;;;;;4962961;28;20050;-73
2023/05/22 06:37:12;;;;;;;6.47;4.78;;;19.00;98.40;;;;;;4971721;28;20077;-73
2023/05/22 06:39:38;;;;;;;9.82;5.20;;;19.00;98.40;;;;;;4974152;28;20553;-72
2023/05/22 06:42:04;;;;;;;6.50;4.75;;;19.00;98.40;;;;;;4992136;28;20140;-73
2023/05/22 06:44:30;;;;;;;10.00;4.60;;;19.10;98.40;;;;;;4974318;28;20116;-73
2023/05/22 06:46:56;;;;;;;9.68;4.90;;;19.10;98.20;;;;;;4985802;28;20156;-73
2023/05/22 06:49:22;;;;;;;9.57;5.22;;;19.00;98.10;;;;;;5004322;28;20046;-73
2023/05/22 06:51:47;;;;;;;8.13;5.03;;;19.10;98.30;;;;;;4975292;28;20072;-73
2023/05/22 06:54:14;;;;;;;5.80;4.90;;;19.10;98.40;;;;;;4962134;28;20057;-73
2023/05/22 06:56:40;;;;;;;10.68;5.22;;;19.10;98.40;;;;;;4971659;28;20050;-73
2023/05/22 06:59:06;;;;;;;7.35;5.35;;;19.10;98.60;;;;;;5001387;28;20065;-73
2023/05/22 07:01:32;;;;;;;6.47;5.07;;;19.20;98.60;;;;;;4977265;28;20048;-73
2023/05/22 07:03:59;;;;;;;11.25;4.80;;;19.20;98.80;;;;;;4976669;28;20052;-73
2023/05/22 07:06:25;;;;;;;9.45;4.95;;;19.20;98.70;;;;;;4966048;28;20050;-73
2023/05/22 07:08:50;;;;;;;4.97;4.32;;;19.30;98.90;;;;;;4977265;28;20060;-73
2023/05/22 07:11:16;;;;;;;7.30;4.93;;;19.40;98.70;;;;;;4956286;28;20444;-74
2023/05/22 07:13:42;;;;;;;9.40;4.72;;;19.40;98.60;;;;;;4978893;28;20058;-74
2023/05/22 07:16:07;;;;;;;7.72;4.97;;;19.50;98.40;;;;;;5001624;28;20042;-73
2023/05/22 07:18:33;;;;;;;9.25;5.00;;;19.60;98.40;;;;;;4966972;28;20050;-73
2023/05/22 07:20:59;;;;;;;8.43;5.03;;;19.60;98.60;;;;;;4997846;28;20037;-74
2023/05/22 07:23:25;;;;;;;7.50;5.50;;;19.70;98.30;;;;;;5002062;28;20598;-73
2023/05/22 07:25:50;;;;;;;7.72;5.00;;;19.70;98.20;;;;;;5009930;28;20045;-73
2023/05/22 07:28:16;;;;;;;6.25;5.15;;;19.80;98.20;;;;;;4990796;28;20050;-74
2023/05/22 07:30:42;;;;;;;7.30;4.38;;;19.80;97.90;;;;;;4976732;28;20367;-73
2023/05/22 07:33:10;;;;;;;7.65;4.57;;;19.80;98.10;;;;;;4979137;28;20156;-73
2023/05/22 07:35:37;;;;;;;7.70;4.78;;;19.90;98.10;;;;;;4981245;28;20128;-73
2023/05/22 07:38:03;;;;;;;9.60;4.90;;;19.90;98.10;;;;;;4963626;28;20136;-74
2023/05/22 07:40:28;;;;;;;7.78;5.07;;;20.00;97.80;;;;;;4995736;28;20137;-73
2023/05/22 07:42:54;;;;;;;10.15;5.25;;;20.00;98.00;;;;;;4968902;28;20050;-73
2023/05/22 07:45:20;;;;;;;8.05;4.80;;;20.00;97.90;;;;;;5004746;28;20049;-73
2023/05/22 07:47:46;;;;;;;9.30;4.88;;;20.10;97.80;;;;;;4983058;28;20069;-73
2023/05/22 07:50:12;;;;;;;11.23;4.95;;;20.10;98.10;;;;;;4979168;28;20076;-74
2023/05/22 07:52:37;;;;;;;8.13;4.68;;;20.20;98.30;;;;;;5003824;28;20068;-73
2023/05/22 07:55:06;;;;;;;7.70;5.10;;;20.20;98.10;;;;;;4961168;28;20390;-74
2023/05/22 07:57:35;;;;;;;;;;;20.20;98.20;;;;;;4938975;28;20053;-74
2023/05/22 08:00:08;;;;;;;8.82;4.97;;;20.30;98.00;;;;;;4972896;28;20044;-73
2023/05/22 08:02:35;;;;;;;9.57;5.50;;;20.30;98.20;;;;;;4974525;28;20161;-74
2023/05/22 08:05:03;;;;;;;9.10;5.35;;;20.40;98.20;;;;;;4951812;28;20046;-73
2023/05/22 08:07:28;;;;;;;7.97;4.22;;;20.40;97.50;;;;;;4998585;28;20098;-74
2023/05/22 08:09:54;;;;;;;6.53;4.88;;;20.50;98.10;;;;;;4985594;28;20490;-73
2023/05/22 08:12:21;;;;;;;8.65;5.07;;;20.60;98.60;;;;;;4989519;28;20695;-73
2023/05/22 08:14:47;;;;;;;12.13;5.10;;;20.60;97.90;;;;;;4962085;28;20157;-74
2023/05/22 08:17:13;;;;;;;9.98;5.40;;;20.70;98.10;;;;;;4956352;28;20193;-74
2023/05/22 08:19:39;;;;;;;7.82;5.07;;;20.70;97.40;;;;;;4969815;28;20070;-74
2023/05/22 08:22:05;;;;;;;12.90;5.68;;;20.70;97.30;;;;;;5010850;28;20049;-74
2023/05/22 08:24:31;;;;;;;8.30;5.40;;;20.80;97.20;;;;;;4978678;28;20046;-74
2023/05/22 08:26:57;;;;;;;12.10;5.38;;;20.80;97.60;;;;;;4994425;28;20052;-74
2023/05/22 08:29:23;;;;;;;8.07;4.20;;;20.80;97.70;;;;;;4977201;28;20509;-75
2023/05/22 08:31:49;;;;;;;9.13;5.13;;;20.90;97.40;;;;;;4960581;28;20046;-75
2023/05/22 08:34:14;;;;;;;8.65;5.15;;;20.90;97.20;;;;;;4954038;28;20038;-75
2023/05/22 08:36:41;;;;;;;10.80;4.95;;;21.00;97.40;;;;;;4992564;28;20052;-74
2023/05/22 08:39:08;;;;;;;11.07;5.00;;;21.00;97.70;;;;;;4950732;28;20073;-74
2023/05/22 08:41:34;;;;;;;7.07;5.23;;;21.10;98.20;;;;;;4951221;28;20145;-74
2023/05/22 08:44:00;;;;;;;8.63;5.15;;;21.20;97.20;;;;;;4994179;28;20199;-74
2023/05/22 08:46:27;;;;;;;8.93;5.18;;;21.20;96.80;;;;;;4973390;28;20192;-75
2023/05/22 08:48:55;;;;;;;15.07;6.15;;;21.20;96.80;;;;;;4976649;28;20060;-72
2023/05/22 08:51:21;;;;;;;8.00;5.25;;;21.30;97.20;;;;;;4974791;28;20046;-72
2023/05/22 08:53:47;;;;;;;10.30;5.60;;;21.50;97.30;;;;;;4968049;28;20048;-74
2023/05/22 08:56:13;;;;;;;9.27;5.28;;;21.50;97.40;;;;;;4987814;28;20085;-72
2023/05/22 08:58:38;;;;;;;10.98;5.30;;;21.50;97.30;;;;;;4984117;28;20355;-73
2023/05/22 09:01:05;;;;;;;9.80;5.50;;;21.70;97.30;;;;;;4995807;28;20047;-72
2023/05/22 09:03:33;;;;;;;10.13;4.82;;;21.80;97.20;;;;;;4974055;28;20046;-73
2023/05/22 09:06:00;;;;;;;13.50;5.32;;;21.90;97.20;;;;;;4961361;28;20049;-72
2023/05/22 09:08:27;;;;;;;13.52;5.30;;;22.00;97.10;;;;;;5001641;28;20468;-73
2023/05/22 09:10:56;;;;;;;9.52;4.68;;;21.90;96.30;;;;;;4989746;28;20633;-73
2023/05/22 09:13:31;;;;;;;11.20;5.22;;;21.90;95.80;;;;;;4971740;28;20042;-73
2023/05/22 09:16:11;;;;;;;11.55;5.72;;;21.90;96.20;;;;;;4962550;28;20049;-73
2023/05/22 09:18:37;;;;;;;16.70;6.03;;;22.00;96.10;;;;;;4946179;28;20490;-73
2023/05/22 09:21:05;;;;;;;11.00;5.70;;;22.00;96.30;;;;;;4984822;28;20371;-73
2023/05/22 09:23:32;;;;;;;13.80;5.88;;;22.10;96.40;;;;;;4954905;28;20811;-73
2023/05/22 09:25:58;;;;;;;10.73;5.55;;;22.20;96.40;;;;;;4958358;28;20051;-73
2023/05/22 09:28:24;;;;;;;9.07;5.22;;;22.20;95.60;;;;;;4995738;28;20041;-73
2023/05/22 09:30:51;;;;;;;10.93;5.10;;;22.30;95.90;;;;;;4995814;28;20767;-73
2023/05/22 09:33:17;;;;;;;14.30;5.72;;;22.40;95.60;;;;;;4985984;28;20050;-73
2023/05/22 09:35:44;;;;;;;8.60;5.45;;;22.50;96.10;;;;;;4970489;28;20064;-73
2023/05/22 09:38:11;;;;;;;10.97;4.80;;;22.60;95.90;;;;;;4971860;28;20332;-73
2023/05/22 09:40:37;;;;;;;10.05;5.45;;;22.70;95.50;;;;;;4979106;28;20061;-73
2023/05/22 09:43:07;;;;;;;7.80;5.43;;;22.80;95.30;;;;;;4962665;28;20534;-73
2023/05/22 09:45:33;;;;;;;9.05;5.50;;;22.70;95.00;;;;;;4971366;28;20050;-73
2023/05/22 09:48:01;;;;;;;12.13;5.40;;;22.80;94.90;;;;;;4976849;28;20485;-74
2023/05/22 09:50:29;;;;;;;7.82;5.00;;;22.90;95.00;;;;;;4972780;28;20136;-74
2023/05/22 09:52:54;;;;;;;10.07;5.20;;;23.00;95.60;;;;;;4981480;28;20474;-73
2023/05/22 09:55:22;;;;;;;10.27;5.60;;;23.00;95.50;;;;;;4939042;28;20050;-74
2023/05/22 09:57:50;;;;;;;10.85;5.10;;;23.10;94.70;;;;;;4963129;28;20384;-74
2023/05/22 10:00:17;;;;;;;9.48;5.43;;;23.10;94.90;;;;;;4970315;28;20457;-74
2023/05/22 10:02:45;;;;;;;12.05;6.00;;;23.20;94.90;;;;;;4973072;28;20085;-73
2023/05/22 10:05:11;;;;;;;12.07;5.30;;;23.10;94.60;;;;;;4979666;28;20053;-73
2023/05/22 10:08:17;;;;;;;9.60;5.45;;;23.20;95.20;;;;;;4973161;28;20132;-73
2023/05/22 10:10:50;;;;;;;12.18;5.82;;;23.30;95.40;;;;;;4991102;28;20165;-73
2023/05/22 10:13:16;;;;;;;11.88;5.70;;;23.40;94.70;;;;;;4971538;28;20046;-73
2023/05/22 10:15:41;;;;;;;10.55;5.32;;;23.60;95.00;;;;;;4956157;28;20142;-73
2023/05/22 10:18:07;;;;;;;8.23;5.65;;;23.60;94.30;;;;;;4972089;28;20050;-73
2023/05/22 10:20:33;;;;;;;11.70;5.35;;;23.70;94.40;;;;;;4971625;28;20049;-73
2023/05/22 10:23:00;;;;;;;9.20;5.55;;;23.70;94.00;;;;;;4990641;28;20048;-73
2023/05/22 10:25:26;;;;;;;9.90;5.10;;;23.70;94.20;;;;;;4969458;28;20050;-74
2023/05/22 10:27:52;;;;;;;7.35;5.30;;;23.90;95.20;;;;;;4971094;28;20109;-74
2023/05/22 10:30:28;;;;;;;10.32;5.30;;;24.00;94.40;;;;;;4964994;28;20042;-74
2023/05/22 10:33:16;;;;;;;10.23;5.82;;;24.20;94.00;;;;;;4990748;28;20050;-74
2023/05/22 10:35:54;;;;;;;9.65;5.13;;;24.30;93.80;;;;;;4970886;28;20054;-74
2023/05/22 10:39:04;;;;;;;14.75;5.70;;;24.50;93.80;;;;;;4989031;28;20054;-74
2023/05/22 10:41:30;;;;;;;7.82;5.72;;;24.60;92.60;;;;;;4951122;29;20566;-74
2023/05/22 10:43:56;;;;;;;7.15;5.07;;;24.60;92.10;;;;;;4954315;28;20070;-74
2023/05/22 10:46:22;;;;;;;9.68;5.10;;;24.70;92.30;;;;;;4982059;28;20053;-75
2023/05/22 10:48:48;;;;;;;8.73;5.50;;;24.90;92.10;;;;;;4979439;28;20045;-76
2023/05/22 10:51:19;;;;;;;10.05;5.35;;;24.90;92.20;;;;;;4978915;28;20046;-76
2023/05/22 10:53:52;;;;;;;13.15;5.13;;;24.90;91.80;;;;;;4957644;28;20344;-76
2023/05/22 10:56:18;;;;;;;9.45;5.40;;;24.90;91.50;;;;;;4967134;28;20355;-75
2023/05/22 10:58:54;;;;;;;8.45;5.38;;;25.00;91.50;;;;;;4989098;28;20038;-75
2023/05/22 11:01:20;;;;;;;11.18;5.40;;;24.90;90.90;;;;;;4964997;28;20049;-74
2023/05/22 11:04:14;;;;;;;10.02;5.68;;;24.90;90.90;;;;;;4977141;28;20340;-73
2023/05/22 11:06:44;;;;;;;9.02;5.22;;;24.90;91.50;;;;;;4970240;28;20037;-73
2023/05/22 11:09:29;;;;;;;11.38;4.93;;;24.90;91.10;;;;;;4954143;28;20057;-73
2023/05/22 11:12:21;;;;;;;9.95;5.22;;;25.20;92.40;;;;;;4992547;28;20394;-74
2023/05/22 11:14:50;;;;;;;10.38;5.40;;;25.30;91.40;;;;;;4990622;28;20455;-74
2023/05/22 11:17:19;;;;;;;6.88;5.38;;;25.60;90.60;;;;;;4990448;28;20042;-74
2023/05/22 11:20:05;;;;;;;7.70;4.95;;;25.70;91.30;;;;;;4970199;28;20042;-74
2023/05/22 11:22:31;;;;;;;8.25;5.00;;;25.60;90.30;;;;;;4977003;28;20042;-74
2023/05/22 11:24:58;;;;;;;10.52;5.30;;;25.60;90.70;;;;;;4990709;28;20058;-74
2023/05/22 11:27:24;;;;;;;8.82;4.72;;;25.80;90.80;;;;;;4959938;28;20043;-73
2023/05/22 11:29:51;;;;;;;9.48;4.78;;;25.80;90.10;;;;;;4990019;28;20363;-73
2023/05/22 11:32:19;;;;;;;13.27;5.30;;;25.80;89.30;;;;;;5008743;28;20041;-73
2023/05/22 11:34:45;;;;;;;;;;;26.00;90.50;;;;;;5006232;28;20045;-75
2023/05/22 11:37:11;;;;;;;6.72;4.53;;;26.20;88.10;;;;;;5009539;28;20401;-74
2023/05/22 11:39:37;;;;;;;8.23;4.82;;;26.20;89.50;;;;;;4958510;28;20045;-74
2023/05/22 11:42:03;;;;;;;6.80;4.28;;;26.20;88.10;;;;;;4989651;28;20082;-73
2023/05/22 11:44:29;;;;;;;5.68;4.55;;;26.30;89.20;;;;;;4968976;28;20478;-74
2023/05/22 11:46:55;;;;;;;7.88;4.78;;;26.50;89.40;;;;;;4972201;28;20041;-74
2023/05/22 11:49:24;;;;;;;9.30;4.70;;;26.60;88.80;;;;;;4971037;28;20054;-74
2023/05/22 11:51:49;;;;;;;9.65;4.60;;;26.60;87.80;;;;;;4981540;28;20049;-74
2023/05/22 11:54:19;;;;;;;6.70;4.65;;;26.50;85.70;;;;;;4959121;28;20524;-74
2023/05/22 11:56:44;;;;;;;7.13;4.45;;;26.30;84.80;;;;;;4980101;28;20045;-74
2023/05/22 11:59:10;;;;;;;8.63;4.90;;;26.40;86.00;;;;;;4965259;28;20054;-74
2023/05/22 12:01:37;;;;;;;7.60;4.63;;;26.50;86.10;;;;;;4986994;28;20042;-74
2023/05/22 12:04:03;;;;;;;12.38;5.13;;;26.60;86.70;;;;;;5002019;28;20153;-74
2023/05/22 12:06:31;;;;;;;6.75;4.50;;;26.80;87.20;;;;;;4984118;28;20112;-74
2023/05/22 12:08:59;;;;;;;12.88;5.35;;;27.10;87.00;;;;;;4964062;28;20050;-74
2023/05/22 12:11:25;;;;;;;8.23;4.55;;;27.10;85.50;;;;;;4975641;28;20422;-74
2023/05/22 12:13:59;;;;;;;9.38;4.82;;;27.10;84.80;;;;;;4978181;28;20131;-73
2023/05/22 12:16:25;;;;;;;9.88;4.93;;;27.10;84.20;;;;;;4989477;28;20691;-74
2023/05/22 12:18:52;;;;;;;7.07;4.60;;;27.10;82.40;;;;;;4979862;28;20061;-74
2023/05/22 12:21:19;;;;;;;8.00;5.25;;;26.80;82.50;;;;;;4977324;28;20466;-74
2023/05/22 12:23:49;;;;;;;8.70;4.50;;;26.80;81.50;;;;;;4958991;28;20116;-73
2023/05/22 12:26:15;;;;;;;7.85;4.63;;;26.80;80.90;;;;;;4957803;28;20129;-74
2023/05/22 12:28:40;;;;;;;10.55;4.60;;;26.90;82.20;;;;;;4967306;28;20113;-73
2023/05/22 12:31:06;;;;;;;7.10;4.43;;;27.00;81.60;;;;;;4974449;28;20439;-74
2023/05/22 12:33:32;;;;;;;8.18;4.45;;;27.10;82.90;;;;;;4951253;28;20054;-74
2023/05/22 12:35:58;;;;;;;5.45;4.80;;;27.00;81.40;;;;;;4981658;28;20058;-74
2023/05/22 12:38:24;;;;;;;7.57;4.50;;;27.10;82.10;;;;;;4948720;28;20050;-74
2023/05/22 12:40:50;;;;;;;7.93;4.75;;;27.10;80.30;;;;;;4984100;28;20081;-74
2023/05/22 12:43:16;;;;;;;7.82;5.03;;;27.20;80.20;;;;;;4973363;28;20042;-74
2023/05/22 12:45:41;;;;;;;9.32;4.82;;;27.00;80.10;;;;;;4966609;28;20042;-74